createdAt,value
2019-05-22T00:00:58.389Z,12.90
2019-05-22T00:04:01.545Z,12.80
2019-05-22T00:07:04.911Z,12.80
2019-05-22T00:10:08.058Z,12.70
2019-05-22T00:13:12.146Z,12.70
2019-05-22T00:16:14.625Z,12.60
2019-05-22T00:19:17.878Z,12.60
2019-05-22T00:22:26.764Z,12.60
2019-05-22T00:25:33.334Z,12.50
2019-05-22T00:28:35.604Z,12.50
2019-05-22T00:31:37.914Z,12.50
2019-05-22T00:34:40.470Z,12.50
2019-05-22T00:37:42.665Z,12.60
2019-05-22T00:40:46.206Z,12.50
2019-05-22T00:43:48.855Z,12.50
2019-05-22T00:46:51.978Z,12.60
2019-05-22T00:49:55.328Z,12.60
2019-05-22T00:52:59.229Z,12.60
2019-05-22T00:56:19.077Z,12.60
2019-05-22T00:59:23.536Z,12.60
2019-05-22T01:02:30.716Z,12.60
2019-05-22T01:05:31.955Z,12.70
2019-05-22T01:08:34.218Z,12.70
2019-05-22T01:11:38.297Z,12.70
2019-05-22T01:14:42.768Z,12.70
2019-05-22T01:17:44.608Z,12.70
2019-05-22T01:20:46.145Z,12.70
2019-05-22T01:23:47.794Z,12.70
2019-05-22T01:26:51.149Z,12.70
2019-05-22T01:29:54.293Z,12.70
2019-05-22T01:32:57.616Z,12.70
2019-05-22T01:36:01.001Z,12.70
2019-05-22T01:39:27.525Z,12.70
2019-05-22T01:42:31.958Z,12.70
2019-05-22T01:45:33.414Z,12.70
2019-05-22T01:48:36.246Z,12.80
2019-05-22T01:51:38.394Z,12.70
2019-05-22T01:54:40.529Z,12.70
2019-05-22T01:57:43.381Z,12.70
2019-05-22T02:00:45.126Z,12.70
2019-05-22T02:03:47.375Z,12.70
2019-05-22T02:06:50.626Z,12.70
2019-05-22T02:09:52.327Z,12.70
2019-05-22T02:12:56.731Z,12.70
2019-05-22T02:15:58.086Z,12.70
2019-05-22T02:18:59.345Z,12.70
2019-05-22T02:22:01.274Z,12.70
2019-05-22T02:25:05.538Z,12.70
2019-05-22T02:28:06.964Z,12.60
2019-05-22T02:31:10.126Z,12.60
2019-05-22T02:34:11.385Z,12.60
2019-05-22T02:37:14.027Z,12.60
2019-05-22T02:40:19.570Z,12.60
2019-05-22T02:43:22.039Z,12.60
2019-05-22T02:46:24.074Z,12.60
2019-05-22T02:49:26.014Z,12.60
2019-05-22T02:52:27.453Z,12.60
2019-05-22T02:55:29.791Z,12.60
2019-05-22T02:58:33.054Z,12.60
2019-05-22T03:01:35.212Z,12.60
2019-05-22T03:04:54.059Z,12.60
2019-05-22T03:07:55.662Z,12.60
2019-05-22T03:10:57.306Z,12.60
2019-05-22T03:14:03.468Z,12.60
2019-05-22T03:17:07.115Z,12.60
2019-05-22T03:20:12.337Z,12.60
2019-05-22T03:23:32.959Z,12.60
2019-05-22T03:26:59.862Z,12.60
2019-05-22T03:30:01.836Z,12.60
2019-05-22T03:33:05.457Z,12.60
2019-05-22T03:36:09.032Z,12.60
2019-05-22T03:39:10.599Z,12.60
2019-05-22T03:42:12.630Z,12.60
2019-05-22T03:45:15.677Z,12.60
2019-05-22T03:48:16.918Z,12.60
2019-05-22T03:51:18.664Z,12.60
2019-05-22T03:54:21.332Z,12.60
2019-05-22T03:57:22.965Z,12.60
2019-05-22T04:00:25.125Z,12.60
2019-05-22T04:03:27.170Z,12.60
2019-05-22T04:06:29.126Z,12.60
2019-05-22T04:09:31.449Z,12.70
2019-05-22T04:12:32.787Z,12.70
2019-05-22T04:15:34.847Z,12.70
2019-05-22T04:18:38.406Z,12.70
2019-05-22T04:21:39.958Z,12.70
2019-05-22T04:24:41.804Z,12.70
2019-05-22T04:27:43.098Z,12.70
2019-05-22T04:30:45.866Z,12.70
2019-05-22T04:33:47.612Z,12.80
2019-05-22T04:36:49.825Z,12.70
2019-05-22T04:39:53.478Z,12.80
2019-05-22T04:42:55.542Z,12.80
2019-05-22T04:45:57.472Z,12.80
2019-05-22T04:48:58.822Z,12.90
2019-05-22T04:52:00.067Z,13.00
2019-05-22T04:55:03.803Z,13.00
2019-05-22T04:58:07.840Z,13.10
2019-05-22T05:01:09.408Z,13.20
2019-05-22T05:04:10.921Z,13.20
2019-05-22T05:07:13.128Z,13.20
2019-05-22T05:10:14.471Z,13.20
2019-05-22T05:13:17.432Z,13.10
2019-05-22T05:16:18.772Z,13.10
2019-05-22T05:19:20.428Z,13.10
2019-05-22T05:22:40.474Z,13.10
2019-05-22T05:25:42.213Z,13.10
2019-05-22T05:28:43.530Z,13.10
2019-05-22T05:31:45.924Z,13.20
2019-05-22T05:34:51.461Z,13.20
2019-05-22T05:37:52.717Z,13.20
2019-05-22T05:40:53.986Z,13.30
2019-05-22T05:43:56.317Z,13.30
2019-05-22T05:46:57.841Z,13.30
2019-05-22T05:49:59.531Z,13.40
2019-05-22T05:53:01.484Z,13.40
2019-05-22T05:56:24.684Z,13.50
2019-05-22T05:59:28.242Z,13.60
2019-05-22T06:02:29.505Z,13.80
2019-05-22T06:05:30.877Z,13.90
2019-05-22T06:08:33.219Z,13.90
2019-05-22T06:11:45.805Z,13.80
2019-05-22T06:14:47.456Z,13.80
2019-05-22T06:18:26.512Z,13.70
2019-05-22T06:21:27.877Z,13.70
2019-05-22T06:24:39.974Z,13.70
2019-05-22T06:27:45.806Z,13.70
2019-05-22T06:30:47.212Z,13.70
2019-05-22T06:33:48.451Z,13.70
2019-05-22T06:36:50.303Z,13.80
2019-05-22T06:39:52.740Z,13.90
2019-05-22T06:43:19.561Z,14.00
2019-05-22T06:46:43.450Z,14.10
2019-05-22T06:49:44.979Z,14.20
2019-05-22T06:52:46.707Z,14.40
2019-05-22T06:55:48.153Z,14.60
2019-05-22T06:58:49.623Z,14.70
2019-05-22T07:02:00.323Z,14.70
2019-05-22T07:04:55.437Z,14.90
2019-05-22T07:07:56.679Z,15.10
2019-05-22T07:10:58.343Z,15.20
2019-05-22T07:14:00.397Z,15.30
2019-05-22T07:17:04.229Z,15.20
2019-05-22T07:20:06.054Z,15.30
2019-05-22T07:23:08.817Z,15.40
2019-05-22T07:26:10.293Z,15.30
2019-05-22T07:29:12.890Z,15.30
2019-05-22T07:32:14.301Z,15.30
2019-05-22T07:35:15.967Z,15.40
2019-05-22T07:38:18.830Z,15.40
2019-05-22T07:41:20.205Z,15.50
2019-05-22T07:44:21.450Z,15.40
2019-05-22T07:47:23.230Z,15.40
2019-05-22T07:50:25.648Z,15.20
2019-05-22T07:53:27.226Z,15.20
2019-05-22T07:56:29.292Z,15.30
2019-05-22T07:59:30.771Z,15.20
2019-05-22T08:02:34.793Z,15.10
2019-05-22T08:05:37.221Z,15.00
2019-05-22T08:08:39.362Z,15.00
2019-05-22T08:11:40.719Z,15.00
2019-05-22T08:14:42.000Z,15.10
2019-05-22T08:17:43.451Z,15.10
2019-05-22T08:20:44.737Z,15.20
2019-05-22T08:23:46.382Z,15.20
2019-05-22T08:26:54.407Z,15.20
2019-05-22T08:29:51.231Z,15.10
2019-05-22T08:32:52.977Z,15.00
2019-05-22T08:35:54.722Z,15.00
2019-05-22T08:38:56.411Z,15.10
2019-05-22T08:41:57.776Z,15.00
2019-05-22T08:44:59.114Z,15.10
2019-05-22T08:48:01.258Z,15.30
2019-05-22T08:51:04.228Z,15.40
2019-05-22T08:54:06.502Z,15.50
2019-05-22T08:57:10.451Z,15.70
2019-05-22T09:00:13.945Z,15.70
2019-05-22T09:03:16.369Z,15.90
2019-05-22T09:06:17.752Z,15.90
2019-05-22T09:09:19.507Z,16.20
2019-05-22T09:12:21.358Z,16.30
2019-05-22T09:15:23.153Z,16.70
2019-05-22T09:18:24.652Z,16.80
2019-05-22T09:21:26.469Z,17.20
2019-05-22T09:24:28.443Z,17.60
2019-05-22T09:27:30.137Z,17.70
2019-05-22T09:30:31.810Z,17.70
2019-05-22T09:33:33.969Z,17.90
2019-05-22T09:36:35.237Z,17.90
2019-05-22T09:39:36.832Z,18.00
2019-05-22T09:42:38.346Z,18.20
2019-05-22T09:45:39.585Z,18.70
2019-05-22T09:48:40.863Z,19.00
2019-05-22T09:51:42.263Z,19.20
2019-05-22T09:54:43.495Z,19.50
2019-05-22T09:57:45.420Z,19.50
2019-05-22T10:00:46.673Z,19.40
2019-05-22T10:03:48.270Z,19.20
2019-05-22T10:06:49.520Z,18.70
2019-05-22T10:09:50.937Z,18.30
2019-05-22T10:12:52.598Z,18.00
2019-05-22T10:15:53.825Z,17.90
2019-05-22T10:18:55.182Z,17.70
2019-05-22T10:21:56.684Z,17.80
2019-05-22T10:25:14.748Z,18.10
2019-05-22T10:28:03.981Z,18.50
2019-05-22T10:31:07.615Z,18.80
2019-05-22T10:34:09.636Z,18.80
2019-05-22T10:37:11.709Z,19.10
2019-05-22T10:40:13.349Z,19.70
2019-05-22T10:43:15.401Z,20.00
2019-05-22T10:46:16.878Z,19.80
2019-05-22T10:49:19.400Z,19.80
2019-05-22T10:52:20.814Z,19.60
2019-05-22T10:55:23.026Z,19.80
2019-05-22T10:58:24.464Z,20.10
2019-05-22T11:01:27.773Z,20.50
2019-05-22T11:04:30.301Z,21.10
2019-05-22T11:07:31.557Z,21.00
2019-05-22T11:10:33.450Z,20.10
2019-05-22T11:13:35.664Z,19.50
2019-05-22T11:16:38.886Z,19.30
2019-05-22T11:19:40.913Z,18.90
2019-05-22T11:22:43.104Z,18.90
2019-05-22T11:25:45.188Z,19.30
2019-05-22T11:28:47.223Z,20.20
2019-05-22T11:31:49.098Z,21.00
2019-05-22T11:34:51.278Z,21.10
2019-05-22T11:37:52.610Z,20.90
2019-05-22T11:40:53.850Z,20.80
2019-05-22T11:43:55.096Z,20.30
2019-05-22T11:46:56.987Z,19.90
2019-05-22T11:49:58.885Z,19.20
2019-05-22T11:53:00.548Z,19.10
2019-05-22T11:56:01.911Z,19.10
2019-05-22T11:59:04.077Z,19.00
2019-05-22T12:02:07.781Z,19.30
2019-05-22T12:05:11.009Z,19.50
2019-05-22T12:08:13.082Z,19.70
2019-05-22T12:11:15.900Z,20.90
2019-05-22T12:14:18.644Z,22.60
2019-05-22T12:17:36.769Z,24.30
2019-05-22T12:20:25.832Z,24.60
2019-05-22T12:23:27.165Z,24.50
2019-05-22T12:26:28.765Z,23.60
2019-05-22T12:29:30.837Z,22.90
2019-05-22T12:32:32.085Z,22.10
2019-05-22T12:35:34.380Z,21.50
2019-05-22T12:38:37.328Z,20.80
2019-05-22T12:41:39.762Z,20.40
2019-05-22T12:44:41.898Z,19.90
2019-05-22T12:47:43.716Z,19.40
2019-05-22T12:50:45.106Z,19.10
2019-05-22T12:53:47.238Z,18.90
2019-05-22T12:56:48.726Z,18.40
2019-05-22T12:59:51.222Z,18.20
2019-05-22T13:02:52.874Z,18.00
2019-05-22T13:05:56.146Z,17.80
2019-05-22T13:08:59.477Z,17.60
2019-05-22T13:12:00.894Z,17.30
2019-05-22T13:15:09.591Z,17.00
2019-05-22T13:18:09.806Z,16.80
2019-05-22T13:21:12.972Z,16.70
2019-05-22T13:24:37.923Z,16.80
2019-05-22T13:27:39.436Z,17.10
2019-05-22T13:30:42.551Z,17.60
2019-05-22T13:33:43.826Z,17.50
2019-05-22T13:36:45.230Z,17.20
2019-05-22T13:39:46.488Z,16.80
2019-05-22T13:42:48.759Z,16.60
2019-05-22T13:45:52.337Z,16.30
2019-05-22T13:48:56.923Z,16.30
2019-05-22T13:51:58.493Z,16.40
2019-05-22T13:54:59.743Z,16.70
2019-05-22T13:58:01.528Z,17.10
2019-05-22T14:01:03.314Z,17.30
2019-05-22T14:04:06.434Z,17.40
2019-05-22T14:07:10.790Z,17.30
2019-05-22T14:10:14.160Z,17.20
2019-05-22T14:13:15.809Z,17.10
2019-05-22T14:16:19.320Z,16.80
2019-05-22T14:19:24.235Z,16.70
2019-05-22T14:22:25.928Z,16.50
2019-05-22T14:25:31.100Z,16.20
2019-05-22T14:28:34.680Z,16.10
2019-05-22T14:31:36.113Z,16.00
2019-05-22T14:34:37.337Z,15.90
2019-05-22T14:37:39.251Z,15.80
2019-05-22T14:40:40.594Z,15.70
2019-05-22T14:43:43.488Z,15.70
2019-05-22T14:46:45.043Z,15.70
2019-05-22T14:49:50.414Z,15.80
2019-05-22T14:52:52.706Z,15.90
2019-05-22T14:55:54.141Z,16.00
2019-05-22T14:58:55.589Z,16.00
2019-05-22T15:01:57.664Z,16.10
2019-05-22T15:05:00.309Z,16.30
2019-05-22T15:08:07.474Z,16.40
2019-05-22T15:11:13.304Z,16.50
2019-05-22T15:14:16.117Z,16.50
2019-05-22T15:17:31.930Z,16.70
2019-05-22T15:20:24.549Z,16.80
2019-05-22T15:23:26.641Z,16.80
2019-05-22T15:26:32.957Z,17.00
2019-05-22T15:29:38.014Z,17.10
2019-05-22T15:32:40.459Z,17.20
2019-05-22T15:35:44.942Z,17.50
2019-05-22T15:38:50.838Z,17.50
2019-05-22T15:41:53.489Z,17.90
2019-05-22T15:44:55.498Z,18.30
2019-05-22T15:48:02.747Z,18.60
2019-05-22T15:51:06.629Z,18.80
2019-05-22T15:54:10.130Z,19.10
2019-05-22T15:57:14.440Z,19.40
2019-05-22T16:00:18.501Z,20.50
2019-05-22T16:03:20.994Z,21.30
2019-05-22T16:06:24.634Z,21.10
2019-05-22T16:09:28.296Z,20.60
2019-05-22T16:12:30.220Z,20.40
2019-05-22T16:15:33.058Z,20.10
2019-05-22T16:18:35.642Z,19.70
2019-05-22T16:21:38.129Z,19.90
2019-05-22T16:24:41.857Z,20.80
2019-05-22T16:27:45.660Z,22.10
2019-05-22T16:30:47.236Z,23.20
2019-05-22T16:33:50.046Z,25.20
2019-05-22T16:36:53.650Z,26.90
2019-05-22T16:39:55.766Z,27.60
2019-05-22T16:42:58.614Z,28.40
2019-05-22T16:46:00.308Z,29.30
2019-05-22T16:49:04.234Z,28.90
2019-05-22T16:52:07.402Z,28.40
2019-05-22T16:55:09.925Z,27.80
2019-05-22T16:58:11.728Z,26.60
2019-05-22T17:01:15.067Z,25.90
2019-05-22T17:04:19.552Z,25.10
2019-05-22T17:07:23.413Z,24.10
2019-05-22T17:10:27.004Z,22.90
2019-05-22T17:13:30.287Z,21.70
2019-05-22T17:16:35.011Z,21.10
2019-05-22T17:19:37.264Z,20.60
2019-05-22T17:22:38.753Z,20.10
2019-05-22T17:25:40.614Z,19.70
2019-05-22T17:28:43.685Z,19.30
2019-05-22T17:31:45.404Z,19.00
2019-05-22T17:34:48.948Z,18.50
2019-05-22T17:37:50.282Z,18.20
2019-05-22T17:40:53.558Z,17.90
2019-05-22T17:43:56.773Z,17.70
2019-05-22T17:47:01.448Z,17.40
2019-05-22T17:50:25.369Z,17.10
2019-05-22T17:53:20.271Z,16.90
2019-05-22T17:56:22.930Z,16.50
2019-05-22T17:59:27.308Z,16.30
2019-05-22T18:02:32.222Z,16.00
2019-05-22T18:05:35.560Z,15.80
2019-05-22T18:08:40.036Z,15.60
2019-05-22T18:11:42.778Z,15.40
2019-05-22T18:14:47.024Z,15.30
2019-05-22T18:17:50.616Z,15.20
2019-05-22T18:20:55.847Z,15.00
2019-05-22T18:24:00.419Z,14.90
2019-05-22T18:27:03.079Z,14.80
2019-05-22T18:30:07.561Z,14.70
2019-05-22T18:33:14.800Z,14.60
2019-05-22T18:36:30.823Z,14.60
2019-05-22T18:39:34.475Z,14.50
2019-05-22T18:42:40.339Z,14.50
2019-05-22T18:45:45.858Z,14.40
2019-05-22T18:48:51.590Z,14.30
2019-05-22T18:51:57.443Z,14.30
2019-05-22T18:55:04.355Z,14.20
2019-05-22T18:58:11.781Z,14.10
2019-05-22T19:01:16.566Z,14.00
2019-05-22T19:04:20.872Z,14.00
2019-05-22T19:07:24.990Z,13.90
2019-05-22T19:10:31.276Z,13.80
2019-05-22T19:13:36.160Z,13.80
2019-05-22T19:16:39.218Z,13.70
2019-05-22T19:19:43.158Z,13.60
2019-05-22T19:22:59.498Z,13.50
2019-05-22T19:25:54.610Z,13.40
2019-05-22T19:29:00.639Z,13.40
2019-05-22T19:32:06.229Z,13.30
2019-05-22T19:35:13.936Z,13.20
2019-05-22T19:38:18.747Z,13.10
2019-05-22T19:41:22.715Z,13.10
2019-05-22T19:44:29.086Z,12.90
2019-05-22T19:47:34.441Z,12.90
2019-05-22T19:50:39.248Z,12.90
2019-05-22T19:53:44.651Z,12.80
2019-05-22T19:56:49.886Z,12.80
2019-05-22T19:59:52.400Z,12.80
2019-05-22T20:02:56.484Z,12.70
2019-05-22T20:05:59.037Z,12.70
2019-05-22T20:09:01.648Z,12.80
2019-05-22T20:12:05.927Z,12.80
2019-05-22T20:15:08.728Z,12.80
2019-05-22T20:18:12.112Z,12.90
2019-05-22T20:21:14.225Z,12.90
2019-05-22T20:24:16.592Z,12.90
2019-05-22T20:27:18.270Z,12.90
2019-05-22T20:30:21.664Z,12.90
2019-05-22T20:33:27.025Z,12.70
2019-05-22T20:36:28.409Z,12.70
2019-05-22T20:39:31.852Z,12.70
2019-05-22T20:42:35.470Z,12.70
2019-05-22T20:45:40.649Z,12.70
2019-05-22T20:48:44.280Z,12.70
2019-05-22T20:51:48.504Z,12.70
2019-05-22T20:54:54.238Z,12.70
2019-05-22T20:57:58.577Z,12.70
2019-05-22T21:01:03.930Z,12.80
2019-05-22T21:04:08.866Z,12.80
2019-05-22T21:07:13.700Z,12.90
2019-05-22T21:10:17.053Z,12.90
2019-05-22T21:13:19.002Z,13.00
2019-05-22T21:16:21.833Z,13.00
2019-05-22T21:19:25.428Z,13.00
2019-05-22T21:22:29.412Z,13.00
2019-05-22T21:25:31.997Z,13.00
2019-05-22T21:28:34.786Z,12.90
2019-05-22T21:31:36.626Z,13.00
2019-05-22T21:34:39.986Z,12.90
2019-05-22T21:37:41.727Z,12.90
2019-05-22T21:40:44.349Z,12.90
2019-05-22T21:43:47.575Z,12.90
2019-05-22T21:46:50.668Z,12.90
2019-05-22T21:49:53.405Z,12.90
2019-05-22T21:52:55.378Z,12.80
2019-05-22T21:56:04.684Z,12.90
2019-05-22T21:59:00.918Z,12.80
2019-05-22T22:02:04.451Z,12.90
2019-05-22T22:05:08.235Z,12.80
2019-05-22T22:08:11.475Z,12.80
2019-05-22T22:11:13.829Z,12.90
2019-05-22T22:14:16.657Z,12.90
2019-05-22T22:17:21.574Z,12.90
2019-05-22T22:20:23.901Z,12.80
2019-05-22T22:23:26.815Z,12.90
2019-05-22T22:26:28.349Z,12.90
2019-05-22T22:29:30.094Z,12.90
2019-05-22T22:32:33.804Z,12.90
2019-05-22T22:35:35.414Z,12.80
2019-05-22T22:38:38.232Z,12.80
2019-05-22T22:41:40.867Z,12.80
2019-05-22T22:44:43.309Z,12.80
2019-05-22T22:47:45.040Z,12.80
2019-05-22T22:50:47.078Z,12.80
2019-05-22T22:53:49.825Z,12.80
2019-05-22T22:56:51.627Z,12.70
2019-05-22T22:59:53.314Z,12.70
2019-05-22T23:02:55.559Z,12.60
2019-05-22T23:05:57.784Z,12.60
2019-05-22T23:09:00.467Z,12.60
2019-05-22T23:12:03.596Z,12.60
2019-05-22T23:15:05.282Z,12.60
2019-05-22T23:18:08.419Z,12.60
2019-05-22T23:21:09.457Z,12.60
2019-05-22T23:24:12.401Z,12.60
2019-05-22T23:27:14.554Z,12.60
2019-05-22T23:30:18.070Z,12.50
2019-05-22T23:33:19.542Z,12.40
2019-05-22T23:36:20.868Z,12.40
2019-05-22T23:39:23.527Z,12.40
2019-05-22T23:42:29.478Z,12.40
2019-05-22T23:45:31.813Z,12.50
2019-05-22T23:48:34.274Z,12.40
2019-05-22T23:51:36.405Z,12.40
2019-05-22T23:54:38.163Z,12.40
2019-05-22T23:57:39.914Z,12.50
